createdAt,value
2023-04-21T00:00:55.345Z,340.60
2023-04-21T00:01:55.519Z,340.60
2023-04-21T00:02:55.638Z,340.25
2023-04-21T00:03:55.856Z,339.55
2023-04-21T00:04:55.763Z,340.25
2023-04-21T00:05:55.764Z,338.86
2023-04-21T00:06:55.839Z,341.31
2023-04-21T00:07:55.953Z,339.90
2023-04-21T00:08:55.997Z,339.55
2023-04-21T00:09:56.100Z,340.95
2023-04-21T00:10:56.178Z,339.90
2023-04-21T00:11:56.277Z,340.60
2023-04-21T00:12:56.360Z,340.25
2023-04-21T00:13:56.437Z,342.72
2023-04-21T00:14:56.522Z,340.25
2023-04-21T00:15:56.634Z,339.90
2023-04-21T00:16:56.658Z,340.95
2023-04-21T00:17:56.790Z,340.25
2023-04-21T00:19:02.795Z,340.25
2023-04-21T00:19:56.913Z,340.95
2023-04-21T00:20:56.958Z,340.60
2023-04-21T00:21:57.032Z,340.25
2023-04-21T00:22:57.096Z,340.25
2023-04-21T00:23:57.202Z,339.21
2023-04-21T00:24:57.275Z,340.95
2023-04-21T00:25:57.375Z,339.21
2023-04-21T00:26:57.460Z,341.31
2023-04-21T00:27:57.501Z,342.01
2023-04-21T00:28:57.576Z,340.25
2023-04-21T00:29:57.685Z,340.25
2023-04-21T00:30:57.769Z,340.95
2023-04-21T00:31:58.011Z,339.90
2023-04-21T00:32:58.021Z,340.25
2023-04-21T00:33:57.995Z,339.90
2023-04-21T00:34:58.087Z,340.25
2023-04-21T00:35:58.135Z,341.66
2023-04-21T00:36:58.224Z,341.31
2023-04-21T00:37:58.321Z,340.60
2023-04-21T00:38:58.412Z,338.51
2023-04-21T00:39:58.473Z,340.25
2023-04-21T00:40:58.570Z,340.95
2023-04-21T00:41:58.653Z,340.25
2023-04-21T00:42:58.683Z,340.25
2023-04-21T00:43:58.773Z,339.55
2023-04-21T00:44:58.879Z,341.31
2023-04-21T00:45:58.934Z,339.90
2023-04-21T00:46:59.040Z,339.90
2023-04-21T00:47:59.131Z,340.95
2023-04-21T00:48:59.175Z,341.31
2023-04-21T00:50:05.756Z,339.90
2023-04-21T00:50:59.386Z,340.95
2023-04-21T00:51:59.466Z,340.60
2023-04-21T00:52:59.535Z,340.25
2023-04-21T00:53:59.622Z,341.31
2023-04-21T00:54:59.696Z,340.60
2023-04-21T00:55:59.775Z,341.31
2023-04-21T00:57:01.620Z,339.90
2023-04-21T00:57:59.966Z,338.86
2023-04-21T00:59:00.046Z,340.25
2023-04-21T01:00:00.235Z,340.95
2023-04-21T01:01:00.300Z,341.66
2023-04-21T01:02:00.417Z,339.90
2023-04-21T01:03:00.605Z,340.60
2023-04-21T01:04:00.519Z,340.60
2023-04-21T01:05:00.546Z,340.60
2023-04-21T01:06:00.627Z,340.95
2023-04-21T01:07:00.733Z,340.60
2023-04-21T01:08:00.809Z,339.90
2023-04-21T01:09:00.899Z,340.60
2023-04-21T01:10:00.974Z,340.95
2023-04-21T01:11:01.045Z,340.25
2023-04-21T01:12:01.141Z,338.86
2023-04-21T01:13:01.210Z,340.25
2023-04-21T01:14:01.294Z,341.31
2023-04-21T01:15:01.369Z,340.25
2023-04-21T01:16:01.494Z,340.95
2023-04-21T01:17:01.629Z,339.90
2023-04-21T01:18:01.627Z,339.90
2023-04-21T01:19:01.669Z,339.90
2023-04-21T01:20:01.775Z,341.31
2023-04-21T01:21:07.791Z,339.55
2023-04-21T01:22:01.897Z,340.25
2023-04-21T01:23:01.998Z,340.95
2023-04-21T01:24:02.060Z,341.31
2023-04-21T01:25:02.148Z,342.72
2023-04-21T01:26:02.238Z,339.21
2023-04-21T01:27:02.307Z,340.60
2023-04-21T01:28:02.387Z,340.60
2023-04-21T01:29:02.478Z,340.25
2023-04-21T01:30:02.554Z,341.66
2023-04-21T01:31:02.687Z,340.95
2023-04-21T01:32:02.828Z,337.82
2023-04-21T01:33:02.984Z,340.95
2023-04-21T01:34:02.923Z,340.95
2023-04-21T01:35:03.010Z,342.01
2023-04-21T01:36:03.064Z,340.25
2023-04-21T01:37:03.141Z,340.95
2023-04-21T01:38:03.233Z,341.31
2023-04-21T01:39:03.309Z,340.60
2023-04-21T01:40:03.397Z,340.60
2023-04-21T01:41:03.463Z,342.01
2023-04-21T01:42:03.547Z,341.66
2023-04-21T01:43:03.642Z,339.90
2023-04-21T01:44:03.742Z,341.66
2023-04-21T01:45:03.815Z,341.31
2023-04-21T01:46:03.948Z,340.25
2023-04-21T01:47:03.979Z,340.25
2023-04-21T01:48:04.095Z,340.60
2023-04-21T01:49:04.157Z,339.55
2023-04-21T01:50:04.232Z,340.95
2023-04-21T01:51:04.323Z,341.66
2023-04-21T01:52:10.819Z,341.31
2023-04-21T01:53:04.477Z,340.95
2023-04-21T01:54:04.545Z,339.21
2023-04-21T01:55:04.651Z,340.95
2023-04-21T01:56:04.718Z,340.60
2023-04-21T01:57:04.848Z,340.25
2023-04-21T01:58:04.925Z,337.82
2023-04-21T01:59:05.006Z,340.95
2023-04-21T02:00:05.098Z,341.66
2023-04-21T02:01:05.179Z,340.25
2023-04-21T02:02:05.351Z,340.25
2023-04-21T02:03:05.410Z,341.31
2023-04-21T02:04:05.720Z,340.60
2023-04-21T02:05:05.478Z,341.31
2023-04-21T02:06:05.562Z,341.66
2023-04-21T02:07:05.625Z,341.66
2023-04-21T02:08:05.714Z,340.95
2023-04-21T02:09:05.761Z,340.60
2023-04-21T02:10:05.841Z,341.66
2023-04-21T02:11:05.922Z,340.95
2023-04-21T02:12:06.001Z,341.31
2023-04-21T02:13:06.100Z,340.95
2023-04-21T02:14:06.173Z,341.31
2023-04-21T02:15:06.286Z,340.60
2023-04-21T02:16:13.384Z,340.95
2023-04-21T02:17:06.402Z,340.95
2023-04-21T02:18:06.578Z,341.31
2023-04-21T02:19:06.564Z,343.08
2023-04-21T02:20:06.688Z,342.01
2023-04-21T02:21:06.713Z,340.60
2023-04-21T02:22:06.796Z,341.31
2023-04-21T02:23:12.844Z,341.66
2023-04-21T02:24:06.957Z,340.95
2023-04-21T02:25:07.050Z,342.72
2023-04-21T02:26:07.163Z,342.72
2023-04-21T02:27:07.205Z,341.66
2023-04-21T02:28:07.263Z,341.31
2023-04-21T02:29:07.353Z,340.95
2023-04-21T02:30:07.428Z,341.31
2023-04-21T02:31:07.531Z,342.37
2023-04-21T02:32:22.376Z,341.66
2023-04-21T02:33:07.720Z,342.37
2023-04-21T02:34:07.741Z,342.01
2023-04-21T02:35:07.815Z,341.66
2023-04-21T02:36:07.902Z,340.95
2023-04-21T02:37:07.988Z,342.37
2023-04-21T02:38:08.070Z,341.31
2023-04-21T02:39:08.149Z,342.37
2023-04-21T02:40:08.235Z,341.66
2023-04-21T02:41:08.325Z,342.72
2023-04-21T02:42:08.417Z,342.01
2023-04-21T02:43:08.509Z,342.37
2023-04-21T02:44:08.577Z,342.01
2023-04-21T02:45:08.671Z,340.25
2023-04-21T02:46:08.762Z,342.01
2023-04-21T02:47:08.822Z,342.01
2023-04-21T02:48:08.994Z,341.66
2023-04-21T02:49:09.028Z,342.37
2023-04-21T02:50:09.079Z,342.72
2023-04-21T02:51:09.148Z,342.37
2023-04-21T02:52:09.223Z,341.66
2023-04-21T02:53:09.299Z,342.37
2023-04-21T02:54:15.853Z,340.25
2023-04-21T02:55:09.486Z,344.15
2023-04-21T02:56:09.595Z,342.37
2023-04-21T02:57:09.673Z,342.01
2023-04-21T02:58:09.750Z,342.37
2023-04-21T02:59:09.846Z,341.31
2023-04-21T03:00:09.934Z,343.08
2023-04-21T03:01:10.044Z,341.31
2023-04-21T03:02:10.146Z,342.01
2023-04-21T03:03:10.302Z,340.60
2023-04-21T03:04:10.336Z,341.66
2023-04-21T03:05:10.341Z,342.37
2023-04-21T03:06:10.461Z,342.37
2023-04-21T03:07:10.474Z,340.95
2023-04-21T03:08:10.545Z,341.31
2023-04-21T03:09:10.625Z,341.66
2023-04-21T03:10:10.705Z,340.95
2023-04-21T03:11:10.777Z,343.08
2023-04-21T03:12:10.885Z,342.37
2023-04-21T03:13:10.974Z,342.01
2023-04-21T03:14:11.016Z,340.95
2023-04-21T03:15:11.092Z,341.31
2023-04-21T03:16:11.196Z,342.72
2023-04-21T03:17:11.250Z,342.01
2023-04-21T03:18:11.400Z,343.08
2023-04-21T03:19:11.418Z,342.37
2023-04-21T03:20:11.502Z,340.25
2023-04-21T03:21:11.584Z,341.66
2023-04-21T03:22:11.676Z,341.66
2023-04-21T03:23:11.777Z,341.31
2023-04-21T03:24:11.823Z,343.08
2023-04-21T03:25:17.869Z,343.08
2023-04-21T03:26:11.989Z,342.37
2023-04-21T03:27:12.072Z,342.37
2023-04-21T03:28:12.180Z,343.08
2023-04-21T03:29:12.214Z,342.37
2023-04-21T03:30:12.309Z,341.66
2023-04-21T03:31:12.389Z,340.95
2023-04-21T03:32:12.521Z,342.37
2023-04-21T03:33:12.592Z,342.72
2023-04-21T03:34:12.667Z,342.01
2023-04-21T03:35:12.751Z,343.08
2023-04-21T03:36:12.841Z,342.72
2023-04-21T03:37:12.930Z,343.43
2023-04-21T03:38:13.018Z,342.01
2023-04-21T03:39:19.739Z,344.51
2023-04-21T03:40:13.217Z,342.01
2023-04-21T03:41:13.305Z,342.37
2023-04-21T03:42:13.364Z,342.72
2023-04-21T03:43:13.473Z,343.43
2023-04-21T03:44:13.552Z,341.31
2023-04-21T03:45:13.668Z,343.79
2023-04-21T03:46:13.709Z,342.01
2023-04-21T03:47:13.795Z,342.37
2023-04-21T03:48:13.872Z,342.01
2023-04-21T03:49:13.973Z,342.72
2023-04-21T03:50:14.059Z,342.72
2023-04-21T03:51:14.132Z,343.08
2023-04-21T03:52:14.208Z,343.43
2023-04-21T03:53:14.275Z,341.66
2023-04-21T03:54:14.372Z,343.08
2023-04-21T03:55:14.450Z,343.08
2023-04-21T03:56:20.887Z,342.37
2023-04-21T03:57:14.614Z,342.72
2023-04-21T03:58:14.681Z,342.37
2023-04-21T03:59:14.757Z,343.08
2023-04-21T04:00:14.847Z,342.37
2023-04-21T04:01:14.921Z,340.60
2023-04-21T04:02:15.099Z,343.79
2023-04-21T04:03:15.196Z,344.51
2023-04-21T04:04:15.546Z,342.01
2023-04-21T04:05:15.254Z,342.72
2023-04-21T04:06:15.316Z,342.37
2023-04-21T04:07:15.393Z,342.01
2023-04-21T04:08:15.486Z,343.08
2023-04-21T04:09:15.560Z,340.95
2023-04-21T04:10:15.631Z,342.01
2023-04-21T04:11:15.703Z,342.72
2023-04-21T04:12:15.777Z,341.66
2023-04-21T04:13:15.932Z,342.72
2023-04-21T04:14:15.953Z,342.01
2023-04-21T04:15:16.037Z,342.01
2023-04-21T04:16:16.124Z,343.08
2023-04-21T04:17:16.168Z,342.01
2023-04-21T04:18:16.243Z,341.66
2023-04-21T04:19:16.356Z,342.01
2023-04-21T04:20:16.408Z,342.01
2023-04-21T04:21:16.482Z,342.01
2023-04-21T04:22:16.570Z,342.72
2023-04-21T04:23:16.661Z,342.72
2023-04-21T04:24:16.754Z,342.01
2023-04-21T04:25:16.884Z,342.37
2023-04-21T04:26:16.946Z,342.37
2023-04-21T04:27:22.985Z,343.08
2023-04-21T04:28:17.113Z,343.08
2023-04-21T04:29:17.359Z,343.43
2023-04-21T04:30:17.238Z,342.01
2023-04-21T04:31:17.358Z,342.01
2023-04-21T04:32:17.929Z,343.43
2023-04-21T04:33:17.479Z,342.01
2023-04-21T04:34:17.569Z,340.95
2023-04-21T04:35:17.661Z,340.95
2023-04-21T04:36:17.729Z,341.31
2023-04-21T04:37:17.800Z,342.37
2023-04-21T04:38:17.910Z,342.01
2023-04-21T04:39:18.114Z,341.66
2023-04-21T04:40:18.014Z,342.01
2023-04-21T04:41:18.089Z,340.95
2023-04-21T04:42:18.168Z,342.72
2023-04-21T04:43:18.264Z,343.08
2023-04-21T04:44:18.717Z,340.25
2023-04-21T04:45:18.451Z,340.60
2023-04-21T04:46:18.566Z,341.66
2023-04-21T04:47:18.661Z,341.66
2023-04-21T04:48:18.695Z,342.01
2023-04-21T04:49:18.789Z,340.25
2023-04-21T04:50:18.871Z,340.60
2023-04-21T04:51:18.933Z,342.01
2023-04-21T04:52:19.005Z,339.90
2023-04-21T04:53:19.096Z,341.31
2023-04-21T04:54:19.417Z,340.95
2023-04-21T04:55:19.230Z,341.31
2023-04-21T04:56:19.311Z,340.60
2023-04-21T04:57:19.402Z,342.72
2023-04-21T04:58:25.451Z,340.95
2023-04-21T04:59:19.557Z,340.25
2023-04-21T05:00:19.651Z,341.66
2023-04-21T05:01:19.738Z,339.90
2023-04-21T05:02:19.975Z,340.60
2023-04-21T05:03:20.105Z,340.60
2023-04-21T05:04:20.547Z,338.51
2023-04-21T05:05:20.126Z,340.60
2023-04-21T05:06:20.103Z,342.01
2023-04-21T05:07:20.198Z,339.55
2023-04-21T05:08:20.291Z,339.55
2023-04-21T05:09:20.374Z,340.25
2023-04-21T05:10:20.447Z,340.25
2023-04-21T05:11:20.561Z,339.21
2023-04-21T05:12:20.593Z,340.25
2023-04-21T05:13:20.662Z,340.25
2023-04-21T05:14:21.023Z,339.90
2023-04-21T05:15:20.844Z,338.17
2023-04-21T05:16:20.965Z,339.90
2023-04-21T05:17:21.092Z,340.25
2023-04-21T05:18:21.120Z,339.90
2023-04-21T05:19:21.189Z,338.51
2023-04-21T05:20:21.265Z,339.21
2023-04-21T05:21:21.339Z,338.17
2023-04-21T05:22:21.445Z,339.21
2023-04-21T05:23:21.484Z,339.21
2023-04-21T05:24:21.608Z,339.21
2023-04-21T05:25:21.645Z,339.21
2023-04-21T05:26:21.712Z,339.21
2023-04-21T05:27:21.784Z,338.17
2023-04-21T05:28:21.871Z,339.90
2023-04-21T05:29:27.926Z,338.51
2023-04-21T05:30:22.029Z,338.51
2023-04-21T05:31:22.095Z,339.21
2023-04-21T05:32:22.413Z,338.17
2023-04-21T05:33:22.311Z,337.82
2023-04-21T05:34:22.365Z,338.86
2023-04-21T05:35:22.439Z,338.17
2023-04-21T05:36:22.543Z,337.13
2023-04-21T05:37:22.615Z,339.21
2023-04-21T05:38:22.693Z,338.86
2023-04-21T05:39:22.825Z,338.51
2023-04-21T05:40:22.850Z,337.82
2023-04-21T05:41:22.934Z,338.17
2023-04-21T05:42:23.000Z,340.60
2023-04-21T05:43:23.063Z,340.60
2023-04-21T05:44:23.180Z,342.72
2023-04-21T05:45:23.259Z,344.51
2023-04-21T05:46:23.347Z,342.72
2023-04-21T05:47:23.454Z,343.79
2023-04-21T05:48:23.464Z,343.79
2023-04-21T05:49:23.568Z,343.43
2023-04-21T05:50:23.649Z,344.87
2023-04-21T05:51:23.733Z,344.51
2023-04-21T05:52:23.888Z,342.37
2023-04-21T05:53:23.908Z,343.43
2023-04-21T05:54:23.978Z,342.37
2023-04-21T05:55:24.077Z,348.14
2023-04-21T05:56:24.167Z,345.23
2023-04-21T05:57:24.246Z,344.15
2023-04-21T05:58:24.309Z,343.08
2023-04-21T05:59:24.403Z,341.66
2023-04-21T06:00:31.036Z,344.15
2023-04-21T06:01:24.579Z,343.08
2023-04-21T06:02:24.731Z,343.79
2023-04-21T06:03:24.954Z,344.15
2023-04-21T06:04:25.327Z,342.72
2023-04-21T06:05:24.922Z,342.72
2023-04-21T06:06:24.996Z,342.72
2023-04-21T06:07:25.066Z,345.23
2023-04-21T06:08:25.134Z,344.51
2023-04-21T06:09:25.210Z,344.51
2023-04-21T06:10:25.285Z,344.15
2023-04-21T06:11:25.382Z,344.15
2023-04-21T06:12:25.504Z,341.66
2023-04-21T06:13:25.539Z,344.15
2023-04-21T06:14:25.631Z,343.43
2023-04-21T06:15:25.675Z,343.43
2023-04-21T06:16:25.763Z,344.15
2023-04-21T06:17:25.896Z,342.72
2023-04-21T06:18:25.941Z,342.01
2023-04-21T06:19:26.095Z,344.87
2023-04-21T06:20:26.108Z,343.43
2023-04-21T06:21:26.163Z,343.08
2023-04-21T06:22:26.259Z,344.51
2023-04-21T06:23:26.302Z,343.43
2023-04-21T06:24:26.411Z,343.43
2023-04-21T06:25:26.474Z,344.15
2023-04-21T06:26:26.520Z,344.51
2023-04-21T06:27:26.590Z,343.08
2023-04-21T06:28:26.692Z,343.43
2023-04-21T06:29:26.778Z,344.51
2023-04-21T06:30:26.860Z,343.79
2023-04-21T06:31:32.959Z,342.37
2023-04-21T06:32:27.071Z,344.15
2023-04-21T06:33:27.154Z,342.37
2023-04-21T06:34:27.226Z,344.15
2023-04-21T06:35:27.306Z,343.08
2023-04-21T06:36:27.410Z,344.51
2023-04-21T06:37:27.474Z,344.15
2023-04-21T06:38:27.556Z,343.43
2023-04-21T06:39:27.689Z,342.01
2023-04-21T06:40:27.763Z,343.43
2023-04-21T06:41:27.804Z,342.01
2023-04-21T06:42:27.915Z,342.72
2023-04-21T06:43:27.965Z,344.15
2023-04-21T06:44:28.128Z,342.01
2023-04-21T06:45:28.160Z,342.72
2023-04-21T06:46:28.349Z,342.37
2023-04-21T06:47:28.521Z,340.25
2023-04-21T06:48:28.512Z,340.60
2023-04-21T06:49:28.680Z,343.43
2023-04-21T06:50:28.627Z,341.66
2023-04-21T06:51:29.126Z,342.01
2023-04-21T06:52:28.848Z,343.79
2023-04-21T06:53:28.916Z,343.08
2023-04-21T06:54:28.978Z,343.08
2023-04-21T06:55:29.055Z,343.08
2023-04-21T06:56:29.211Z,342.01
2023-04-21T06:57:29.243Z,343.79
2023-04-21T06:58:29.333Z,342.37
2023-04-21T06:59:29.558Z,343.43
2023-04-21T07:00:29.471Z,341.31
2023-04-21T07:01:29.582Z,342.01
2023-04-21T07:02:36.186Z,342.72
2023-04-21T07:03:29.758Z,342.72
2023-04-21T07:04:29.807Z,341.31
2023-04-21T07:05:29.857Z,344.15
2023-04-21T07:06:29.943Z,342.72
2023-04-21T07:07:30.121Z,342.72
2023-04-21T07:08:30.158Z,342.72
2023-04-21T07:09:30.244Z,342.72
2023-04-21T07:10:30.249Z,342.37
2023-04-21T07:11:30.331Z,341.66
2023-04-21T07:12:30.406Z,340.95
2023-04-21T07:13:30.497Z,341.66
2023-04-21T07:14:30.608Z,342.01
2023-04-21T07:15:30.666Z,342.37
2023-04-21T07:16:30.822Z,341.66
2023-04-21T07:17:30.920Z,341.31
2023-04-21T07:18:30.874Z,341.66
2023-04-21T07:19:30.963Z,341.31
2023-04-21T07:20:31.036Z,342.01
2023-04-21T07:21:31.130Z,341.31
2023-04-21T07:22:31.198Z,341.31
2023-04-21T07:23:31.269Z,342.01
2023-04-21T07:24:31.339Z,342.37
2023-04-21T07:25:31.462Z,341.31
2023-04-21T07:26:31.488Z,344.15
2023-04-21T07:27:31.590Z,339.90
2023-04-21T07:28:31.648Z,342.01
2023-04-21T07:29:31.727Z,340.60
2023-04-21T07:30:31.805Z,342.01
2023-04-21T07:31:31.988Z,340.25
2023-04-21T07:32:31.977Z,342.37
2023-04-21T07:33:38.023Z,341.66
2023-04-21T07:34:32.101Z,340.95
2023-04-21T07:35:32.170Z,340.60
2023-04-21T07:36:32.282Z,342.01
2023-04-21T07:37:32.324Z,340.95
2023-04-21T07:38:32.414Z,340.60
2023-04-21T07:39:32.479Z,340.60
2023-04-21T07:40:32.585Z,342.01
2023-04-21T07:41:32.661Z,340.25
2023-04-21T07:42:32.749Z,340.25
2023-04-21T07:43:32.784Z,340.25
2023-04-21T07:44:32.881Z,340.95
2023-04-21T07:45:32.959Z,340.95
2023-04-21T07:46:33.099Z,340.25
2023-04-21T07:47:33.202Z,341.31
2023-04-21T07:48:33.214Z,340.25
2023-04-21T07:49:33.295Z,341.31
2023-04-21T07:50:33.384Z,340.25
2023-04-21T07:51:33.515Z,339.21
2023-04-21T07:52:33.573Z,340.25
2023-04-21T07:53:33.673Z,339.55
2023-04-21T07:54:33.705Z,340.60
2023-04-21T07:55:33.789Z,340.25
2023-04-21T07:56:33.867Z,340.25
2023-04-21T07:57:33.940Z,339.90
2023-04-21T07:58:34.063Z,339.55
2023-04-21T07:59:34.124Z,340.60
2023-04-21T08:00:34.197Z,343.08
2023-04-21T08:01:34.272Z,341.31
2023-04-21T08:02:34.443Z,340.95
2023-04-21T08:03:34.515Z,340.25
2023-04-21T08:04:40.602Z,338.51
2023-04-21T08:05:37.652Z,339.55
2023-04-21T08:06:34.775Z,338.17
2023-04-21T08:07:34.760Z,340.25
2023-04-21T08:08:34.836Z,339.21
2023-04-21T08:09:34.912Z,338.86
2023-04-21T08:10:35.011Z,337.82
2023-04-21T08:11:35.069Z,342.72
2023-04-21T08:12:35.327Z,344.15
2023-04-21T08:13:35.241Z,339.90
2023-04-21T08:14:35.307Z,336.79
2023-04-21T08:15:35.381Z,342.01
2023-04-21T08:16:35.543Z,344.15
2023-04-21T08:17:35.602Z,342.72
2023-04-21T08:18:35.599Z,337.13
2023-04-21T08:19:35.671Z,338.51
2023-04-21T08:20:35.766Z,339.21
2023-04-21T08:21:35.835Z,337.47
2023-04-21T08:22:35.986Z,338.86
2023-04-21T08:23:36.011Z,338.17
2023-04-21T08:24:36.069Z,339.21
2023-04-21T08:25:36.166Z,339.21
2023-04-21T08:26:36.272Z,337.82
2023-04-21T08:27:36.325Z,337.47
2023-04-21T08:28:36.443Z,337.82
2023-04-21T08:29:36.506Z,338.51
2023-04-21T08:30:36.564Z,338.51
2023-04-21T08:31:36.679Z,338.51
2023-04-21T08:32:36.761Z,339.55
2023-04-21T08:33:41.352Z,338.86
2023-04-21T08:34:36.899Z,338.51
2023-04-21T08:35:55.083Z,338.17
2023-04-21T08:36:37.096Z,337.13
2023-04-21T08:37:37.163Z,338.51
2023-04-21T08:38:37.265Z,340.95
2023-04-21T08:39:37.341Z,338.17
2023-04-21T08:40:37.404Z,338.51
2023-04-21T08:41:37.490Z,338.17
2023-04-21T08:42:37.605Z,339.55
2023-04-21T08:43:37.634Z,338.86
2023-04-21T08:44:37.729Z,344.51
2023-04-21T08:45:37.845Z,337.82
2023-04-21T08:46:37.863Z,339.55
2023-04-21T08:47:37.975Z,339.55
2023-04-21T08:48:38.011Z,338.17
2023-04-21T08:49:38.090Z,338.17
2023-04-21T08:50:38.191Z,337.82
2023-04-21T08:51:38.299Z,338.17
2023-04-21T08:52:38.328Z,339.55
2023-04-21T08:53:38.427Z,344.87
2023-04-21T08:54:38.495Z,338.51
2023-04-21T08:55:38.571Z,337.13
2023-04-21T08:56:38.682Z,338.51
2023-04-21T08:57:38.740Z,342.72
2023-04-21T08:58:38.826Z,337.47
2023-04-21T08:59:38.904Z,338.17
2023-04-21T09:00:38.965Z,338.86
2023-04-21T09:01:39.137Z,344.15
2023-04-21T09:02:39.279Z,336.10
2023-04-21T09:03:39.515Z,343.43
2023-04-21T09:04:39.456Z,338.86
2023-04-21T09:05:42.831Z,338.17
2023-04-21T09:06:45.575Z,340.60
2023-04-21T09:07:39.541Z,336.79
2023-04-21T09:08:39.621Z,337.82
2023-04-21T09:09:39.687Z,339.55
2023-04-21T09:10:39.824Z,337.13
2023-04-21T09:11:39.847Z,337.47
2023-04-21T09:12:39.924Z,337.47
2023-04-21T09:13:39.997Z,340.60
2023-04-21T09:14:40.159Z,342.37
2023-04-21T09:15:40.177Z,337.82
2023-04-21T09:16:40.301Z,338.17
2023-04-21T09:17:40.367Z,338.17
2023-04-21T09:18:40.575Z,336.79
2023-04-21T09:19:40.478Z,338.17
2023-04-21T09:20:40.569Z,337.82
2023-04-21T09:21:40.631Z,338.17
2023-04-21T09:22:40.710Z,341.31
2023-04-21T09:23:40.810Z,343.43
2023-04-21T09:24:40.874Z,337.47
2023-04-21T09:25:40.916Z,339.21
2023-04-21T09:26:40.990Z,343.43
2023-04-21T09:27:41.064Z,337.13
2023-04-21T09:28:41.168Z,340.25
2023-04-21T09:29:41.283Z,342.37
2023-04-21T09:30:41.355Z,342.01
2023-04-21T09:31:41.574Z,341.31
2023-04-21T09:32:41.612Z,341.66
2023-04-21T09:33:53.985Z,337.47
2023-04-21T09:34:41.729Z,337.82
2023-04-21T09:35:41.806Z,338.86
2023-04-21T09:36:41.863Z,342.72
2023-04-21T09:37:47.990Z,339.21
2023-04-21T09:38:42.006Z,337.82
2023-04-21T09:39:56.700Z,337.13
2023-04-21T09:40:42.197Z,339.21
2023-04-21T09:41:42.255Z,335.76
2023-04-21T09:42:44.569Z,337.47
2023-04-21T09:43:42.385Z,337.47
2023-04-21T09:44:53.207Z,336.44
2023-04-21T09:45:42.543Z,337.82
2023-04-21T09:46:42.665Z,336.44
2023-04-21T09:47:42.979Z,336.79
2023-04-21T09:48:42.779Z,340.25
2023-04-21T09:49:42.838Z,342.72
2023-04-21T09:51:11.402Z,337.47
2023-04-21T09:52:10.382Z,342.37
2023-04-21T09:52:43.112Z,336.44
2023-04-21T09:53:43.147Z,340.95
2023-04-21T09:54:43.257Z,339.90
2023-04-21T09:55:43.329Z,336.44
2023-04-21T09:56:43.373Z,337.82
2023-04-21T09:57:43.532Z,336.44
2023-04-21T09:58:43.515Z,337.82
2023-04-21T09:59:43.581Z,335.08
2023-04-21T10:00:43.710Z,335.76
2023-04-21T10:01:43.797Z,340.60
2023-04-21T10:02:43.944Z,339.55
2023-04-21T10:03:44.117Z,337.82
2023-04-21T10:04:44.237Z,337.82
2023-04-21T10:05:44.167Z,335.42
2023-04-21T10:06:44.152Z,339.55
2023-04-21T10:07:44.257Z,337.47
2023-04-21T10:08:50.613Z,337.82
2023-04-21T10:09:44.429Z,334.06
2023-04-21T10:10:44.467Z,338.51
2023-04-21T10:11:44.558Z,336.44
2023-04-21T10:12:44.649Z,336.10
2023-04-21T10:13:44.709Z,338.17
2023-04-21T10:14:44.889Z,334.74
2023-04-21T10:15:44.928Z,341.31
2023-04-21T10:16:45.106Z,335.76
2023-04-21T10:17:45.077Z,338.51
2023-04-21T10:18:45.146Z,337.82
2023-04-21T10:19:45.264Z,334.74
2023-04-21T10:20:45.298Z,334.40
2023-04-21T10:21:45.408Z,336.79
2023-04-21T10:22:45.499Z,335.42
2023-04-21T10:23:45.616Z,336.44
2023-04-21T10:24:45.648Z,334.74
2023-04-21T10:25:45.766Z,334.06
2023-04-21T10:26:45.803Z,338.17
2023-04-21T10:27:45.879Z,338.86
2023-04-21T10:28:45.956Z,336.44
2023-04-21T10:29:56.006Z,337.13
2023-04-21T10:30:46.146Z,335.76
2023-04-21T10:31:46.245Z,341.31
2023-04-21T10:32:46.395Z,338.17
2023-04-21T10:33:46.430Z,339.21
2023-04-21T10:34:46.505Z,341.66
2023-04-21T10:35:46.618Z,340.60
2023-04-21T10:36:46.670Z,342.72
2023-04-21T10:37:46.737Z,339.55
2023-04-21T10:38:46.840Z,339.55
2023-04-21T10:39:53.024Z,334.06
2023-04-21T10:40:47.073Z,336.10
2023-04-21T10:41:47.114Z,334.40
2023-04-21T10:42:47.158Z,339.21
2023-04-21T10:43:49.565Z,336.44
2023-04-21T10:44:47.327Z,340.60
2023-04-21T10:45:47.498Z,340.60
2023-04-21T10:46:47.590Z,333.73
2023-04-21T10:47:47.697Z,340.25
2023-04-21T10:48:47.697Z,341.66
2023-04-21T10:49:48.513Z,339.90
2023-04-21T10:50:47.896Z,334.74
2023-04-21T10:51:48.000Z,333.73
2023-04-21T10:52:48.096Z,342.72
2023-04-21T10:53:48.106Z,333.73
2023-04-21T10:54:48.198Z,337.82
2023-04-21T10:55:48.291Z,337.13
2023-04-21T10:56:48.349Z,333.39
2023-04-21T10:57:48.523Z,339.55
2023-04-21T10:58:48.563Z,337.13
2023-04-21T10:59:48.665Z,337.47
2023-04-21T11:00:48.727Z,338.51
2023-04-21T11:01:48.732Z,338.51
2023-04-21T11:02:48.883Z,337.82
2023-04-21T11:03:49.134Z,338.51
2023-04-21T11:04:49.430Z,336.10
2023-04-21T11:05:49.056Z,334.40
2023-04-21T11:06:49.134Z,339.21
2023-04-21T11:07:49.194Z,336.79
2023-04-21T11:08:49.271Z,338.17
2023-04-21T11:09:49.355Z,334.40
2023-04-21T11:10:55.717Z,339.21
2023-04-21T11:11:49.523Z,333.39
2023-04-21T11:12:49.604Z,340.25
2023-04-21T11:13:49.745Z,335.42
2023-04-21T11:14:49.842Z,337.82
2023-04-21T11:15:49.827Z,339.21
2023-04-21T11:16:50.030Z,334.06
2023-04-21T11:17:50.059Z,334.40
2023-04-21T11:18:50.059Z,333.05
2023-04-21T11:19:52.547Z,338.51
2023-04-21T11:20:50.255Z,334.06
2023-04-21T11:21:50.323Z,332.72
2023-04-21T11:22:50.388Z,334.06
2023-04-21T11:23:50.434Z,338.17
2023-04-21T11:24:50.508Z,333.39
2023-04-21T11:25:50.913Z,337.82
2023-04-21T11:26:50.658Z,336.79
2023-04-21T11:27:50.735Z,333.39
2023-04-21T11:28:50.887Z,332.05
2023-04-21T11:29:50.882Z,333.73
2023-04-21T11:30:51.013Z,337.47
2023-04-21T11:31:51.057Z,331.05
2023-04-21T11:32:51.174Z,339.21
2023-04-21T11:33:51.244Z,337.13
2023-04-21T11:34:51.298Z,333.73
2023-04-21T11:35:51.344Z,336.79
2023-04-21T11:36:51.477Z,335.76
2023-04-21T11:37:51.509Z,333.05
2023-04-21T11:38:51.582Z,331.72
2023-04-21T11:39:51.717Z,333.05
2023-04-21T11:40:51.803Z,330.72
2023-04-21T11:41:57.801Z,335.76
2023-04-21T11:42:51.869Z,337.13
2023-04-21T11:43:52.025Z,332.72
2023-04-21T11:44:52.060Z,334.40
2023-04-21T11:45:52.212Z,338.17
2023-04-21T11:46:52.305Z,337.47
2023-04-21T11:47:52.308Z,332.39
2023-04-21T11:48:52.347Z,336.79
2023-04-21T11:49:52.459Z,337.47
2023-04-21T11:50:52.514Z,329.08
2023-04-21T11:51:52.667Z,334.06
2023-04-21T11:52:52.686Z,336.10
2023-04-21T11:53:52.765Z,330.39
2023-04-21T11:54:52.834Z,331.72
2023-04-21T11:55:52.918Z,331.72
2023-04-21T11:56:53.038Z,333.39
2023-04-21T11:57:53.118Z,338.51
2023-04-21T11:58:53.195Z,339.55
2023-04-21T11:59:53.371Z,331.72
2023-04-21T12:00:53.355Z,336.79
2023-04-21T12:01:53.430Z,336.44
2023-04-21T12:02:53.645Z,333.39
2023-04-21T12:03:53.897Z,335.76
2023-04-21T12:04:53.916Z,334.74
2023-04-21T12:05:53.896Z,335.42
2023-04-21T12:06:53.893Z,337.13
2023-04-21T12:07:53.989Z,330.72
2023-04-21T12:08:54.111Z,335.76
2023-04-21T12:09:54.111Z,332.05
2023-04-21T12:10:54.199Z,337.47
2023-04-21T12:11:54.258Z,330.39
2023-04-21T12:13:01.215Z,336.44
2023-04-21T12:13:54.387Z,333.05
2023-04-21T12:14:54.488Z,332.72
2023-04-21T12:15:54.578Z,338.51
2023-04-21T12:16:54.636Z,336.10
2023-04-21T12:17:54.930Z,332.72
2023-04-21T12:18:54.787Z,332.72
2023-04-21T12:19:54.880Z,330.39
2023-04-21T12:20:54.986Z,336.79
2023-04-21T12:21:55.013Z,331.39
2023-04-21T12:22:55.121Z,336.79
2023-04-21T12:23:55.224Z,335.76
2023-04-21T12:24:55.312Z,331.05
2023-04-21T12:25:55.370Z,335.42
2023-04-21T12:26:55.446Z,329.40
2023-04-21T12:27:55.511Z,332.72
2023-04-21T12:28:55.666Z,333.73
2023-04-21T12:29:55.705Z,335.08